Airport View

Enter AWOS ICAO identifier for current METAR.

ex. KFNL

KJGG 200050Z AUTO 00000KT 10SM SCT016 SCT060 18/17 A3026 RMK AO1

20 Oct 2020 00:55

Frequency: 120.625

Phone: 757-220-8810

Other Area AWOS: KFAF - KPHF - KFYJ - KLFI

TAF KFAF 191800Z 1918/2024 VRB06KT 9999 FEW020 SCT150 QNH3025INS BECMG 1921/1922 VRB06KT 9999 SCT030 QNH3023INS BECMG 2005/2006 VRB06KT 9999 BKN030 OVC050 QNH3020INS TX23/1918Z TN17/2009Z